createdAt,value
2018-08-04T00:01:40.613Z,18.90
2018-08-04T00:04:08.778Z,18.80
2018-08-04T00:06:37.683Z,18.70
2018-08-04T00:09:09.209Z,18.70
2018-08-04T00:11:38.206Z,18.70
2018-08-04T00:14:07.791Z,18.70
2018-08-04T00:16:37.473Z,18.70
2018-08-04T00:19:06.097Z,18.70
2018-08-04T00:21:35.607Z,18.60
2018-08-04T00:24:03.633Z,18.60
2018-08-04T00:26:32.730Z,18.50
2018-08-04T00:29:01.566Z,18.50
2018-08-04T00:31:31.162Z,18.50
2018-08-04T00:33:59.225Z,18.40
2018-08-04T00:36:27.393Z,18.40
2018-08-04T00:38:55.793Z,18.40
2018-08-04T00:41:23.976Z,18.40
2018-08-04T00:43:52.462Z,18.50
2018-08-04T00:46:21.050Z,18.40
2018-08-04T00:48:49.041Z,18.50
2018-08-04T00:51:17.154Z,18.50
2018-08-04T00:53:45.451Z,18.40
2018-08-04T00:56:13.677Z,18.40
2018-08-04T00:58:41.645Z,18.40
2018-08-04T01:01:09.502Z,18.40
2018-08-04T01:03:37.537Z,18.30
2018-08-04T01:06:05.825Z,18.20
2018-08-04T01:08:33.874Z,18.20
2018-08-04T01:11:02.415Z,18.10
2018-08-04T01:13:31.012Z,18.10
2018-08-04T01:15:58.876Z,18.10
2018-08-04T01:18:26.857Z,18.00
2018-08-04T01:20:55.103Z,18.00
2018-08-04T01:23:23.349Z,18.00
2018-08-04T01:28:19.269Z,17.90
2018-08-04T01:30:47.354Z,17.90
2018-08-04T01:38:11.192Z,17.80
2018-08-04T01:40:39.317Z,17.80
2018-08-04T01:43:08.031Z,17.80
2018-08-04T01:45:36.297Z,17.70
2018-08-04T01:48:04.451Z,17.70
2018-08-04T01:50:32.237Z,17.60
2018-08-04T01:53:00.893Z,17.60
2018-08-04T01:55:28.995Z,17.70
2018-08-04T01:57:56.921Z,17.70
2018-08-04T02:00:25.110Z,17.70
2018-08-04T02:02:53.601Z,17.70
2018-08-04T02:05:21.763Z,17.70
2018-08-04T02:07:49.769Z,17.70
2018-08-04T02:10:17.806Z,17.70
2018-08-04T02:12:45.908Z,17.60
2018-08-04T02:15:14.384Z,17.50
2018-08-04T02:17:42.356Z,17.50
2018-08-04T02:20:10.069Z,17.40
2018-08-04T02:22:38.110Z,17.40
2018-08-04T02:25:06.224Z,17.40
2018-08-04T02:27:34.149Z,17.30
2018-08-04T02:30:02.495Z,17.30
2018-08-04T02:34:59.100Z,17.30
2018-08-04T02:37:27.036Z,17.30
2018-08-04T02:39:54.886Z,17.30
2018-08-04T02:42:22.911Z,17.40
2018-08-04T02:44:50.522Z,17.30
2018-08-04T02:47:18.641Z,17.40
2018-08-04T02:49:49.659Z,17.30
2018-08-04T02:52:17.878Z,17.30
2018-08-04T02:57:13.746Z,17.10
2018-08-04T02:59:41.967Z,17.10
2018-08-04T03:02:09.906Z,17.10
2018-08-04T03:04:38.033Z,17.10
2018-08-04T03:07:06.293Z,17.10
2018-08-04T03:09:34.395Z,17.00
2018-08-04T03:12:02.401Z,17.00
2018-08-04T03:14:30.963Z,17.00
2018-08-04T03:16:59.183Z,17.10
2018-08-04T03:19:27.091Z,17.00
2018-08-04T03:21:55.073Z,17.00
2018-08-04T03:24:22.885Z,17.10
2018-08-04T03:26:50.906Z,17.00
2018-08-04T03:29:19.022Z,16.90
2018-08-04T03:31:47.167Z,16.90
2018-08-04T03:34:14.990Z,16.80
2018-08-04T03:41:40.376Z,16.70
2018-08-04T03:44:08.753Z,16.70
2018-08-04T03:46:37.442Z,16.70
2018-08-04T03:49:05.560Z,16.70
2018-08-04T03:51:33.827Z,16.70
2018-08-04T03:54:01.879Z,16.80
2018-08-04T03:56:29.947Z,16.90
2018-08-04T03:59:04.865Z,16.90
2018-08-04T04:01:33.470Z,16.90
2018-08-04T04:04:01.422Z,16.90
2018-08-04T04:06:29.322Z,16.90
2018-08-04T04:08:57.463Z,16.80
2018-08-04T04:11:25.503Z,16.80
2018-08-04T04:13:54.484Z,16.70
2018-08-04T04:16:22.533Z,16.70
2018-08-04T04:18:50.799Z,16.80
2018-08-04T04:21:18.784Z,16.90
2018-08-04T04:23:46.940Z,16.90
2018-08-04T04:26:15.197Z,17.00
2018-08-04T04:28:43.216Z,16.90
2018-08-04T04:31:11.405Z,17.00
2018-08-04T04:33:39.471Z,17.00
2018-08-04T04:36:07.510Z,17.10
2018-08-04T04:41:03.524Z,17.10
2018-08-04T04:43:31.482Z,17.10
2018-08-04T04:45:59.600Z,17.10
2018-08-04T04:50:55.749Z,17.10
2018-08-04T04:53:23.557Z,17.30
2018-08-04T04:55:51.610Z,17.40
2018-08-04T04:58:19.702Z,17.40
2018-08-04T05:00:48.366Z,17.40
2018-08-04T05:03:16.266Z,17.40
2018-08-04T05:05:44.634Z,17.50
2018-08-04T05:08:12.337Z,17.50
2018-08-04T05:10:40.466Z,17.50
2018-08-04T05:13:08.536Z,17.70
2018-08-04T05:15:36.392Z,17.70
2018-08-04T05:18:04.577Z,17.70
2018-08-04T05:20:32.576Z,17.80
2018-08-04T05:23:01.105Z,17.90
2018-08-04T05:25:29.088Z,17.90
2018-08-04T05:27:57.112Z,18.00
2018-08-04T05:30:25.178Z,18.00
2018-08-04T05:32:53.668Z,18.10
2018-08-04T05:35:21.879Z,18.20
2018-08-04T05:37:50.160Z,18.30
2018-08-04T05:40:18.049Z,18.40
2018-08-04T05:42:47.224Z,18.50
2018-08-04T05:45:15.397Z,18.60
2018-08-04T05:47:43.395Z,18.90
2018-08-04T05:50:11.759Z,19.10
2018-08-04T05:52:39.914Z,19.40
2018-08-04T05:55:07.836Z,19.90
2018-08-04T05:57:35.897Z,20.30
2018-08-04T06:00:04.873Z,20.50
2018-08-04T06:02:32.921Z,20.70
2018-08-04T06:05:01.002Z,20.70
2018-08-04T06:07:29.122Z,20.70
2018-08-04T06:09:57.002Z,20.90
2018-08-04T06:12:25.102Z,21.10
2018-08-04T06:14:54.344Z,21.30
2018-08-04T06:17:22.155Z,21.80
2018-08-04T06:19:50.188Z,22.40
2018-08-04T06:22:18.323Z,23.40
2018-08-04T06:24:46.485Z,24.20
2018-08-04T06:27:14.716Z,25.00
2018-08-04T06:29:42.943Z,25.80
2018-08-04T06:32:10.759Z,26.40
2018-08-04T06:34:39.064Z,26.90
2018-08-04T06:37:07.210Z,27.40
2018-08-04T06:39:35.537Z,27.90
2018-08-04T06:42:03.268Z,28.10
2018-08-04T06:44:31.603Z,28.40
2018-08-04T06:46:59.452Z,28.70
2018-08-04T06:51:55.642Z,29.20
2018-08-04T06:54:23.639Z,29.50
2018-08-04T06:56:51.551Z,29.70
2018-08-04T06:59:19.889Z,29.90
2018-08-04T07:01:47.819Z,30.20
2018-08-04T07:04:15.957Z,30.40
2018-08-04T07:06:44.151Z,30.40
2018-08-04T07:09:11.823Z,30.50
2018-08-04T07:11:39.922Z,30.70
2018-08-04T07:14:09.837Z,30.70
2018-08-04T07:16:38.437Z,30.90
2018-08-04T07:19:06.696Z,31.10
2018-08-04T07:21:36.464Z,31.00
2018-08-04T07:24:04.643Z,30.70
2018-08-04T07:26:32.523Z,30.30
2018-08-04T07:29:00.757Z,30.00
2018-08-04T07:31:29.311Z,29.80
2018-08-04T07:33:57.423Z,29.80
2018-08-04T07:36:25.650Z,29.90
2018-08-04T07:38:54.269Z,29.80
2018-08-04T07:41:22.822Z,30.00
2018-08-04T07:43:50.843Z,30.00
2018-08-04T07:46:19.044Z,30.00
2018-08-04T07:48:46.980Z,30.00
2018-08-04T07:51:15.053Z,30.00
2018-08-04T07:53:43.219Z,30.00
2018-08-04T07:56:11.265Z,30.10
2018-08-04T08:01:07.597Z,30.00
2018-08-04T08:03:35.957Z,30.10
2018-08-04T08:06:04.100Z,30.20
2018-08-04T08:08:32.206Z,30.40
2018-08-04T08:11:01.277Z,30.60
2018-08-04T08:13:29.485Z,30.70
2018-08-04T08:15:57.978Z,30.80
2018-08-04T08:18:26.348Z,30.80
2018-08-04T08:20:54.447Z,30.90
2018-08-04T08:23:24.157Z,30.90
2018-08-04T08:26:02.962Z,31.10
2018-08-04T08:28:30.956Z,30.90
2018-08-04T08:30:59.164Z,30.90
2018-08-04T08:33:27.642Z,31.00
2018-08-04T08:35:55.851Z,31.00
2018-08-04T08:38:25.107Z,31.10
2018-08-04T08:40:53.172Z,31.00
2018-08-04T08:43:21.341Z,31.10
2018-08-04T08:45:49.517Z,31.30
2018-08-04T08:48:17.895Z,31.40
2018-08-04T08:50:46.261Z,31.40
2018-08-04T08:53:14.488Z,31.50
2018-08-04T08:55:42.680Z,31.60
2018-08-04T08:58:10.929Z,31.60
2018-08-04T09:00:38.954Z,31.60
2018-08-04T09:03:07.629Z,31.70
2018-08-04T09:05:36.272Z,31.80
2018-08-04T09:08:05.460Z,31.90
2018-08-04T09:10:33.446Z,32.00
2018-08-04T09:13:01.621Z,32.20
2018-08-04T09:15:29.950Z,32.00
2018-08-04T09:17:58.959Z,32.00
2018-08-04T09:20:27.066Z,32.10
2018-08-04T09:22:56.604Z,32.30
2018-08-04T09:25:24.799Z,32.50
2018-08-04T09:27:53.137Z,32.50
2018-08-04T09:30:21.221Z,32.60
2018-08-04T09:32:49.996Z,32.50
2018-08-04T09:35:19.029Z,32.60
2018-08-04T09:37:47.171Z,32.80
2018-08-04T09:40:15.762Z,32.80
2018-08-04T09:42:45.423Z,32.90
2018-08-04T09:45:13.462Z,32.80
2018-08-04T09:47:41.819Z,32.70
2018-08-04T09:50:12.015Z,32.80
2018-08-04T09:52:40.944Z,32.60
2018-08-04T09:55:10.856Z,32.70
2018-08-04T09:57:39.842Z,32.70
2018-08-04T10:00:16.660Z,32.60
2018-08-04T10:02:45.458Z,32.40
2018-08-04T10:05:13.542Z,32.50
2018-08-04T10:07:42.176Z,32.60
2018-08-04T10:10:10.433Z,32.60
2018-08-04T10:12:38.579Z,32.80
2018-08-04T10:15:09.115Z,32.80
2018-08-04T10:17:37.689Z,32.70
2018-08-04T10:20:07.562Z,32.80
2018-08-04T10:22:35.866Z,32.80
2018-08-04T10:25:04.554Z,32.90
2018-08-04T10:27:32.546Z,33.00
2018-08-04T10:32:28.847Z,32.80
2018-08-04T10:34:57.358Z,32.90
2018-08-04T10:37:25.489Z,33.10
2018-08-04T10:39:53.998Z,33.40
2018-08-04T10:42:21.977Z,33.60
2018-08-04T10:44:50.065Z,33.50
2018-08-04T10:49:45.886Z,33.20
2018-08-04T10:52:14.361Z,33.20
2018-08-04T10:54:42.524Z,33.10
2018-08-04T10:57:10.331Z,33.20
2018-08-04T10:59:38.433Z,33.30
2018-08-04T11:02:07.152Z,33.40
2018-08-04T11:04:35.213Z,33.50
2018-08-04T11:07:03.202Z,33.60
2018-08-04T11:09:31.683Z,33.60
2018-08-04T11:11:59.911Z,33.50
2018-08-04T11:14:28.308Z,33.20
2018-08-04T11:16:56.404Z,33.00
2018-08-04T11:19:24.974Z,32.70
2018-08-04T11:21:52.866Z,32.60
2018-08-04T11:24:21.022Z,32.60
2018-08-04T11:26:49.098Z,32.60
2018-08-04T11:29:17.508Z,32.70
2018-08-04T11:31:47.625Z,32.80
2018-08-04T11:34:16.567Z,32.90
2018-08-04T11:36:44.510Z,33.10
2018-08-04T11:39:13.529Z,33.20
2018-08-04T11:41:41.578Z,33.40
2018-08-04T11:44:09.930Z,33.70
2018-08-04T11:46:38.545Z,33.60
2018-08-04T11:49:06.727Z,33.60
2018-08-04T11:51:36.381Z,33.40
2018-08-04T11:54:04.823Z,33.30
2018-08-04T11:56:33.672Z,33.20
2018-08-04T11:59:02.410Z,33.10
2018-08-04T12:01:30.579Z,33.00
2018-08-04T12:03:58.632Z,32.70
2018-08-04T12:06:27.243Z,32.80
2018-08-04T12:08:55.469Z,32.80
2018-08-04T12:11:23.754Z,32.90
2018-08-04T12:13:52.961Z,33.20
2018-08-04T12:16:20.962Z,33.40
2018-08-04T12:18:50.029Z,33.40
2018-08-04T12:21:18.119Z,33.40
2018-08-04T12:23:46.405Z,33.50
2018-08-04T12:26:16.167Z,33.40
2018-08-04T12:28:44.588Z,33.50
2018-08-04T12:31:12.670Z,33.40
2018-08-04T12:33:41.396Z,33.40
2018-08-04T12:36:09.409Z,33.50
2018-08-04T12:38:37.692Z,33.50
2018-08-04T12:41:05.958Z,33.60
2018-08-04T12:43:34.244Z,33.40
2018-08-04T12:46:02.912Z,33.30
2018-08-04T12:48:31.331Z,33.10
2018-08-04T12:51:01.014Z,33.00
2018-08-04T12:53:28.862Z,32.80
2018-08-04T12:55:58.624Z,32.60
2018-08-04T12:58:27.427Z,32.50
2018-08-04T13:00:56.166Z,32.50
2018-08-04T13:03:24.775Z,32.40
2018-08-04T13:05:52.748Z,32.20
2018-08-04T13:08:21.292Z,32.10
2018-08-04T13:10:50.431Z,32.00
2018-08-04T13:13:19.063Z,31.90
2018-08-04T13:15:48.356Z,32.00
2018-08-04T13:18:17.123Z,31.90
2018-08-04T13:20:45.963Z,32.00
2018-08-04T13:23:14.726Z,32.00
2018-08-04T13:25:43.349Z,31.80
2018-08-04T13:28:12.492Z,31.70
2018-08-04T13:30:40.889Z,31.80
2018-08-04T13:33:10.560Z,31.90
2018-08-04T13:35:38.697Z,32.00
2018-08-04T13:38:07.722Z,32.10
2018-08-04T13:40:36.787Z,32.30
2018-08-04T13:43:05.312Z,32.30
2018-08-04T13:45:33.387Z,32.30
2018-08-04T13:48:01.997Z,32.20
2018-08-04T13:50:30.311Z,32.20
2018-08-04T13:52:58.556Z,32.30
2018-08-04T13:55:26.656Z,32.30
2018-08-04T13:57:55.327Z,32.40
2018-08-04T14:00:23.714Z,32.50
2018-08-04T14:02:54.426Z,32.50
2018-08-04T14:05:24.076Z,32.40
2018-08-04T14:07:54.884Z,32.20
2018-08-04T14:10:23.475Z,32.10
2018-08-04T14:12:52.188Z,32.10
2018-08-04T14:15:21.730Z,32.10
2018-08-04T14:17:49.946Z,32.10
2018-08-04T14:20:18.718Z,32.00
2018-08-04T14:22:47.083Z,32.00
2018-08-04T14:25:15.695Z,32.00
2018-08-04T14:27:44.019Z,32.00
2018-08-04T14:30:12.217Z,32.10
2018-08-04T14:32:40.761Z,32.10
2018-08-04T14:35:09.149Z,32.20
2018-08-04T14:37:38.106Z,32.20
2018-08-04T14:40:06.941Z,32.10
2018-08-04T14:42:35.131Z,32.10
2018-08-04T14:45:04.359Z,32.10
2018-08-04T14:50:01.151Z,31.90
2018-08-04T14:52:29.801Z,31.90
2018-08-04T14:54:58.804Z,31.90
2018-08-04T14:57:27.201Z,31.90
2018-08-04T14:59:55.202Z,31.70
2018-08-04T15:02:23.406Z,31.60
2018-08-04T15:04:51.590Z,31.30
2018-08-04T15:07:19.537Z,31.20
2018-08-04T15:09:48.085Z,30.90
2018-08-04T15:12:16.294Z,30.80
2018-08-04T15:14:45.054Z,30.80
2018-08-04T15:17:13.033Z,30.70
2018-08-04T15:19:41.121Z,30.80
2018-08-04T15:22:09.139Z,30.80
2018-08-04T15:24:37.200Z,30.80
2018-08-04T15:27:05.359Z,30.40
2018-08-04T15:29:33.349Z,30.40
2018-08-04T15:32:01.554Z,30.50
2018-08-04T15:34:30.247Z,30.40
2018-08-04T15:36:58.756Z,30.60
2018-08-04T15:39:27.340Z,30.80
2018-08-04T15:41:56.033Z,31.00
2018-08-04T15:44:24.310Z,31.20
2018-08-04T15:46:52.972Z,31.20
2018-08-04T15:49:21.148Z,31.20
2018-08-04T15:51:50.276Z,31.30
2018-08-04T15:54:18.556Z,31.30
2018-08-04T15:56:47.047Z,31.30
2018-08-04T15:59:15.617Z,31.40
2018-08-04T16:01:46.111Z,31.40
2018-08-04T16:04:14.488Z,31.50
2018-08-04T16:06:45.847Z,31.50
2018-08-04T16:09:14.936Z,31.50
2018-08-04T16:11:43.520Z,31.50
2018-08-04T16:14:12.666Z,31.60
2018-08-04T16:16:44.325Z,31.60
2018-08-04T16:19:12.888Z,31.60
2018-08-04T16:21:42.148Z,31.50
2018-08-04T16:24:10.751Z,31.40
2018-08-04T16:26:40.901Z,31.40
2018-08-04T16:29:10.649Z,31.30
2018-08-04T16:31:42.449Z,31.30
2018-08-04T16:36:43.110Z,31.10
2018-08-04T16:39:11.996Z,31.00
2018-08-04T16:41:40.267Z,31.00
2018-08-04T16:44:08.522Z,31.00
2018-08-04T16:46:38.155Z,30.90
2018-08-04T16:49:06.488Z,30.90
2018-08-04T16:51:36.321Z,30.90
2018-08-04T16:54:04.624Z,30.90
2018-08-04T16:56:33.009Z,30.80
2018-08-04T16:59:01.930Z,30.70
2018-08-04T17:01:30.138Z,30.70
2018-08-04T17:03:58.445Z,30.70
2018-08-04T17:06:26.483Z,30.60
2018-08-04T17:08:54.782Z,30.40
2018-08-04T17:11:23.307Z,30.20
2018-08-04T17:13:52.469Z,30.00
2018-08-04T17:16:20.753Z,29.80
2018-08-04T17:18:49.194Z,29.60
2018-08-04T17:21:18.085Z,29.50
2018-08-04T17:23:46.169Z,29.30
2018-08-04T17:26:14.786Z,29.20
2018-08-04T17:28:42.829Z,29.00
2018-08-04T17:31:13.076Z,28.80
2018-08-04T17:33:41.653Z,28.60
2018-08-04T17:36:10.984Z,28.30
2018-08-04T17:38:40.361Z,28.20
2018-08-04T17:41:09.873Z,28.10
2018-08-04T17:43:38.512Z,28.10
2018-08-04T17:46:08.262Z,27.90
2018-08-04T17:48:36.122Z,27.60
2018-08-04T17:51:04.347Z,27.50
2018-08-04T17:53:32.661Z,27.30
2018-08-04T17:56:00.659Z,27.10
2018-08-04T17:58:28.863Z,27.10
2018-08-04T18:00:56.921Z,27.10
2018-08-04T18:03:24.772Z,26.80
2018-08-04T18:05:53.002Z,26.70
2018-08-04T18:08:21.162Z,26.70
2018-08-04T18:10:49.235Z,26.60
2018-08-04T18:13:17.635Z,26.60
2018-08-04T18:15:45.986Z,26.40
2018-08-04T18:18:13.741Z,26.40
2018-08-04T18:20:41.816Z,26.30
2018-08-04T18:23:11.270Z,26.20
2018-08-04T18:25:39.534Z,26.20
2018-08-04T18:28:07.386Z,26.20
2018-08-04T18:30:35.462Z,26.20
2018-08-04T18:33:04.233Z,26.20
2018-08-04T18:35:32.704Z,26.10
2018-08-04T18:38:00.679Z,26.00
2018-08-04T18:40:29.190Z,25.80
2018-08-04T18:42:57.441Z,25.30
2018-08-04T18:47:53.438Z,24.70
2018-08-04T18:50:21.319Z,24.50
2018-08-04T18:52:49.380Z,24.20
2018-08-04T18:55:17.994Z,24.10
2018-08-04T18:57:46.881Z,23.90
2018-08-04T19:00:15.102Z,23.70
2018-08-04T19:02:43.539Z,23.70
2018-08-04T19:05:11.819Z,23.60
2018-08-04T19:07:39.661Z,23.50
2018-08-04T19:10:08.125Z,23.40
2018-08-04T19:12:36.005Z,23.30
2018-08-04T19:15:04.653Z,23.20
2018-08-04T19:17:32.609Z,23.20
2018-08-04T19:20:01.806Z,23.10
2018-08-04T19:22:30.263Z,23.00
2018-08-04T19:24:58.929Z,23.00
2018-08-04T19:27:27.043Z,22.80
2018-08-04T19:29:54.972Z,22.70
2018-08-04T19:32:23.693Z,22.60
2018-08-04T19:34:51.814Z,22.40
2018-08-04T19:37:20.099Z,22.30
2018-08-04T19:39:48.329Z,22.30
2018-08-04T19:42:17.251Z,22.20
2018-08-04T19:44:45.495Z,22.20
2018-08-04T19:47:13.812Z,22.10
2018-08-04T19:49:42.258Z,22.10
2018-08-04T19:52:10.777Z,22.10
2018-08-04T19:54:38.885Z,22.10
2018-08-04T19:57:07.275Z,22.10
2018-08-04T19:59:35.424Z,22.00
2018-08-04T20:02:03.868Z,22.00
2018-08-04T20:04:33.186Z,21.90
2018-08-04T20:07:01.334Z,21.80
2018-08-04T20:09:30.012Z,21.70
2018-08-04T20:11:58.785Z,21.70
2018-08-04T20:14:28.381Z,21.70
2018-08-04T20:16:57.222Z,21.70
2018-08-04T20:19:25.978Z,21.60
2018-08-04T20:21:54.951Z,21.60
2018-08-04T20:24:23.181Z,21.50
2018-08-04T20:26:51.790Z,21.50
2018-08-04T20:29:20.154Z,21.40
2018-08-04T20:31:48.321Z,21.40
2018-08-04T20:34:16.700Z,21.30
2018-08-04T20:36:44.856Z,21.20
2018-08-04T20:39:14.819Z,21.20
2018-08-04T20:41:43.423Z,21.20
2018-08-04T20:44:14.668Z,21.20
2018-08-04T20:46:42.723Z,21.10
2018-08-04T20:49:10.625Z,21.10
2018-08-04T20:51:38.407Z,21.10
2018-08-04T20:54:08.310Z,21.10
2018-08-04T20:56:37.343Z,21.10
2018-08-04T20:59:05.650Z,21.00
2018-08-04T21:02:06.442Z,21.00
2018-08-04T21:04:36.236Z,21.00
2018-08-04T21:07:05.525Z,21.00
2018-08-04T21:09:35.089Z,21.00
2018-08-04T21:12:03.557Z,21.00
2018-08-04T21:14:33.465Z,21.00
2018-08-04T21:17:01.759Z,21.00
2018-08-04T21:19:30.288Z,21.00
2018-08-04T21:21:59.557Z,21.00
2018-08-04T21:24:28.040Z,20.90
2018-08-04T21:29:30.134Z,20.90
2018-08-04T21:31:58.869Z,20.80
2018-08-04T21:34:27.322Z,20.70
2018-08-04T21:36:56.129Z,20.70
2018-08-04T21:39:25.006Z,20.60
2018-08-04T21:41:53.000Z,20.50
2018-08-04T21:44:21.292Z,20.50
2018-08-04T21:46:50.484Z,20.30
2018-08-04T21:49:20.886Z,20.30
2018-08-04T21:51:50.026Z,20.30
2018-08-04T21:54:19.917Z,20.20
2018-08-04T21:56:50.370Z,20.20
2018-08-04T21:59:18.218Z,20.20
2018-08-04T22:01:51.808Z,20.10
2018-08-04T22:04:19.523Z,20.10
2018-08-04T22:07:59.297Z,20.00
2018-08-04T22:10:27.861Z,20.00
2018-08-04T22:12:56.092Z,19.90
2018-08-04T22:15:24.292Z,19.90
2018-08-04T22:17:52.348Z,19.90
2018-08-04T22:20:21.034Z,19.80
2018-08-04T22:22:49.450Z,19.80
2018-08-04T22:25:19.109Z,19.80
2018-08-04T22:27:47.189Z,19.70
2018-08-04T22:30:17.873Z,19.70
2018-08-04T22:32:46.417Z,19.70
2018-08-04T22:35:14.722Z,19.60
2018-08-04T22:37:43.208Z,19.60
2018-08-04T22:40:12.358Z,19.60
2018-08-04T22:42:40.564Z,19.50
2018-08-04T22:46:21.584Z,19.50
2018-08-04T22:48:50.991Z,19.40
2018-08-04T22:51:25.434Z,19.30
2018-08-04T22:53:53.512Z,19.30
2018-08-04T22:56:21.416Z,19.20
2018-08-04T22:58:49.287Z,19.10
2018-08-04T23:01:17.249Z,19.20
2018-08-04T23:06:13.185Z,19.00
2018-08-04T23:08:41.141Z,19.00
2018-08-04T23:11:09.749Z,19.00
2018-08-04T23:13:38.103Z,19.00
2018-08-04T23:16:06.025Z,19.00
2018-08-04T23:18:34.434Z,19.00
2018-08-04T23:21:02.871Z,18.90
2018-08-04T23:25:58.622Z,18.90
2018-08-04T23:28:26.791Z,18.90
2018-08-04T23:30:54.723Z,18.90
2018-08-04T23:33:22.938Z,19.00
2018-08-04T23:35:50.899Z,19.00
2018-08-04T23:38:18.751Z,18.90
2018-08-04T23:40:46.799Z,18.90
2018-08-04T23:43:15.327Z,19.00
2018-08-04T23:45:43.247Z,19.00
2018-08-04T23:48:11.167Z,19.00
2018-08-04T23:50:39.218Z,19.00
2018-08-04T23:53:07.595Z,18.90
2018-08-04T23:55:36.128Z,18.90
2018-08-04T23:58:03.884Z,18.80
